Impacts METAR Board
IDs:

KJWY - Midlothian/Mid-Way R, TX, US

Updated at: 1300 UTC 13 Dec 2019
Potential Impact None Slight Moderate High
Time 13/01Z 13/02Z 13/03Z 13/04Z 13/05Z 13/06Z 13/07Z 13/08Z 13/09Z 13/10Z 13/11Z 13/12Z 13/13Z
Temp48 47 47 45 44 44 43 41 42 42 42 41 41
Dewpt41 42 43 42 42 44 43 41 42 42 42 41 41
Altim30.09 30.06 30.06 30.05 30.05 30.03 30.00 29.98 29.96 29.95 29.93 29.92 29.91
VIS10 10 10 10 10 10 10 5 5 5 5 7 7
CIG-- -- -- -- -- -- -- -- -- -- -- -- --
CoverCLRCLRCLRCLRCLRCLRCLRCLRCLRCLRCLRCLRCLR
FltCatVFRVFRVFRVFRVFRVFRVFRMVFRMVFRMVFRMVFRVFRVFR
WX--------------BRBRBRBR----
WDir1601601601600150150150160160170180180
WSpd3 5 5 3 0 3 4 3 3 4 6 4 7
WGst-- -- -- -- -- -- -- -- -- -- -- -- --
Raw hourly METARs
KJWY 130055Z AUTO 16003KT 10SM CLR 09/05 A3009 RMK AO2 T00870050
KJWY 130155Z AUTO 16005KT 10SM CLR 09/06 A3006 RMK AO2 T00860055
KJWY 130255Z AUTO 16005KT 10SM CLR 09/06 A3006 RMK AO2 T00860059
KJWY 130355Z AUTO 16003KT 10SM CLR 07/06 A3005 RMK AO2 T00710055
KJWY 130455Z AUTO 00000KT 10SM CLR 07/06 A3005 RMK AO2 T00660055
KJWY 130555Z AUTO 15003KT 10SM CLR 07/07 A3003 RMK AO2 T00670065 10101 20065 401400000
KJWY 130655Z AUTO 15004KT 10SM CLR 06/06 A3000 RMK AO2 T00600060
KJWY 130755Z AUTO 15003KT 5SM BR CLR 05/05 A2998 RMK AO2 T00520052
KJWY 130855Z AUTO 16003KT 5SM BR CLR 06/06 A2996 RMK AO2 T00560056
KJWY 130955Z AUTO 16004KT 5SM BR CLR 06/06 A2995 RMK AO2 T00550055
KJWY 131055Z AUTO 17006KT 5SM BR CLR 06/06 A2993 RMK AO2 T00560056
KJWY 131155Z AUTO 18004KT 7SM CLR 05/05 A2992 RMK AO2 T00510051 10067 20051
KJWY 131255Z AUTO 18007KT 7SM CLR 05/05 A2991 RMK AO2 T00510051



Page loaded:  13:53 UTC  |   05:53 AM Pacific  |   06:53 AM Mountain  |   07:53 AM Central  |   08:53 AM Eastern

 

ADVISORIES

FORECASTS

FORECASTS

OBSERVATIONS

USER TOOLS

ABOUT US